Time;durP1;ratioP1;P1;durP2;ratioP2;P2;SDS_P1;SDS_P2;PMS_P1;PMS_P2;Temp;Humidity;BMP_temperature;BMP_pressure;BME280_temperature;BME280_humidity;BME280_pressure;Samples;Min_cycle;Max_cycle;Signal;HPM_P1;HPM_P2
2023/03/03 00:00:43;;;;;;;50.30;27.20;;;;;;;;;;5035499;28;20415;-80
2023/03/03 00:03:11;;;;;;;50.87;27.90;;;;;;;;;;5031439;28;20494;-82
2023/03/03 00:05:37;;;;;;;48.05;27.65;;;;;;;;;;5032643;28;20438;-82
2023/03/03 00:08:04;;;;;;;56.10;28.95;;;;;;;;;;5034698;28;20417;-81
2023/03/03 00:10:30;;;;;;;51.25;29.55;;;;;;;;;;5034174;28;20923;-81
2023/03/03 00:12:57;;;;;;;56.40;28.90;;;;;;;;;;5033317;28;20415;-81
2023/03/03 00:15:24;;;;;;;55.60;29.73;;;;;;;;;;5035207;28;20466;-81
2023/03/03 00:17:52;;;;;;;55.67;29.98;;;;;;;;;;5033002;28;20421;-81
2023/03/03 00:20:30;;;;;;;62.58;32.28;;;;;;;;;;5036042;28;20435;-82
2023/03/03 00:22:58;;;;;;;62.77;31.30;;;;;;;;;;5033096;28;20426;-81
2023/03/03 00:25:27;;;;;;;60.30;31.45;;;;;;;;;;5034123;28;20883;-80
2023/03/03 00:27:53;;;;;;;62.45;31.88;;;;;;;;;;5033935;28;20427;-82
2023/03/03 00:30:23;;;;;;;56.70;30.40;;;;;;;;;;5035203;28;20432;-82
2023/03/03 00:32:51;;;;;;;63.92;32.05;;;;;;;;;;5035729;28;20419;-80
2023/03/03 00:35:23;;;;;;;56.88;30.52;;;;;;;;;;5031513;28;20436;-82
2023/03/03 00:37:51;;;;;;;62.40;31.55;;;;;;;;;;5033310;28;20420;-82
2023/03/03 00:40:22;;;;;;;55.90;29.50;;;;;;;;;;5034397;28;20419;-81
2023/03/03 00:42:50;;;;;;;55.95;30.55;;;;;;;;;;5026573;28;20423;-82
2023/03/03 00:45:37;;;;;;;65.72;32.70;;;;;;;;;;5028769;28;20432;-81
2023/03/03 00:48:14;;;;;;;62.95;32.88;;;;;;;;;;5025651;28;20802;-81
2023/03/03 00:50:43;;;;;;;61.67;31.17;;;;;;;;;;5033114;28;20769;-81
2023/03/03 00:53:11;;;;;;;73.20;34.77;;;;;;;;;;5032892;28;20474;-80
2023/03/03 00:55:38;;;;;;;79.88;35.40;;;;;;;;;;5033711;28;20414;-81
2023/03/03 00:58:04;;;;;;;71.97;34.55;;;;;;;;;;5032424;28;20440;-81
2023/03/03 01:00:31;;;;;;;84.20;36.65;;;;;;;;;;5033188;28;20905;-81
2023/03/03 01:02:58;;;;;;;75.72;35.50;;;;;;;;;;5029813;28;20427;-81
2023/03/03 01:05:25;;;;;;;80.75;37.13;;;;;;;;;;5033398;28;20420;-81
2023/03/03 01:07:52;;;;;;;80.22;37.75;;;;;;;;;;5028610;28;20422;-81
2023/03/03 01:10:19;;;;;;;79.45;36.90;;;;;;;;;;5033241;28;20442;-82
2023/03/03 01:12:45;;;;;;;93.10;40.70;;;;;;;;;;5032686;28;20436;-81
2023/03/03 01:15:13;;;;;;;89.77;39.60;;;;;;;;;;5035525;28;20409;-81
2023/03/03 01:17:40;;;;;;;95.82;42.15;;;;;;;;;;5033637;28;20419;-81
2023/03/03 01:20:07;;;;;;;84.03;39.05;;;;;;;;;;5032496;28;20438;-80
2023/03/03 01:22:34;;;;;;;95.63;41.28;;;;;;;;;;5031710;28;20416;-81
2023/03/03 01:25:02;;;;;;;85.25;39.42;;;;;;;;;;5033063;28;20415;-80
2023/03/03 01:27:30;;;;;;;90.63;41.60;;;;;;;;;;5033077;28;20475;-82
2023/03/03 01:29:57;;;;;;;97.95;40.65;;;;;;;;;;5035161;28;20419;-82
2023/03/03 01:32:23;;;;;;;100.10;42.90;;;;;;;;;;5033797;28;20405;-81
2023/03/03 01:34:49;;;;;;;93.03;42.33;;;;;;;;;;5031828;28;20432;-80
2023/03/03 01:37:16;;;;;;;100.35;42.25;;;;;;;;;;5030659;28;20429;-81
2023/03/03 01:39:42;;;;;;;93.10;41.08;;;;;;;;;;5035933;28;20438;-82
2023/03/03 01:42:10;;;;;;;88.57;40.20;;;;;;;;;;5034235;28;20421;-81
2023/03/03 01:44:36;;;;;;;86.17;39.30;;;;;;;;;;5034110;28;20425;-82
2023/03/03 01:47:04;;;;;;;95.22;41.00;;;;;;;;;;5035328;28;20422;-79
2023/03/03 01:49:33;;;;;;;93.13;38.83;;;;;;;;;;5033951;28;20460;-84
2023/03/03 01:52:01;;;;;;;90.82;39.00;;;;;;;;;;5033681;28;20925;-82
2023/03/03 01:54:29;;;;;;;91.75;40.92;;;;;;;;;;5032012;28;20421;-82
2023/03/03 01:56:57;;;;;;;90.77;41.17;;;;;;;;;;5035229;28;20432;-82
2023/03/03 01:59:26;;;;;;;85.22;40.63;;;;;;;;;;5030699;28;20429;-82
2023/03/03 02:01:53;;;;;;;91.87;42.23;;;;;;;;;;5026682;28;20459;-80
2023/03/03 02:04:20;;;;;;;91.55;41.15;;;;;;;;;;5029170;28;20421;-81
2023/03/03 02:06:50;;;;;;;87.40;39.65;;;;;;;;;;5028586;28;20437;-81
2023/03/03 02:09:18;;;;;;;89.25;39.03;;;;;;;;;;5030381;28;20425;-81
2023/03/03 02:11:45;;;;;;;89.63;41.67;;;;;;;;;;5031342;28;20412;-81
2023/03/03 02:14:12;;;;;;;85.78;39.90;;;;;;;;;;5031092;28;20436;-81
2023/03/03 02:16:40;;;;;;;89.05;39.38;;;;;;;;;;5032522;28;20422;-81
2023/03/03 02:19:10;;;;;;;90.67;40.00;;;;;;;;;;5027020;28;20451;-81
2023/03/03 02:21:36;;;;;;;83.43;37.85;;;;;;;;;;5030711;28;20409;-80
2023/03/03 02:24:05;;;;;;;86.13;39.13;;;;;;;;;;5029928;28;20926;-81
2023/03/03 02:26:35;;;;;;;82.93;40.47;;;;;;;;;;5030647;28;20432;-81
2023/03/03 02:29:01;;;;;;;81.05;38.50;;;;;;;;;;5028848;28;20431;-81
2023/03/03 02:31:29;;;;;;;85.13;39.63;;;;;;;;;;5056803;23;20469;-82
2023/03/03 02:33:56;;;;;;;87.35;37.58;;;;;;;;;;5035166;28;20417;-81
2023/03/03 02:36:23;;;;;;;82.85;36.83;;;;;;;;;;5031485;28;20431;-82
2023/03/03 02:38:51;;;;;;;83.88;39.35;;;;;;;;;;5035903;28;20426;-82
2023/03/03 02:41:27;;;;;;;80.10;37.22;;;;;;;;;;5036552;28;20431;-81
2023/03/03 02:43:57;;;;;;;78.85;36.63;;;;;;;;;;5036908;28;20473;-81
2023/03/03 02:46:23;;;;;;;82.50;39.13;;;;;;;;;;5038283;28;20432;-81
2023/03/03 02:48:49;;;;;;;80.15;38.80;;;;;;;;;;5037072;28;20419;-81
2023/03/03 02:51:16;;;;;;;82.63;40.08;;;;;;;;;;5037433;28;20457;-81
2023/03/03 02:53:42;;;;;;;79.63;38.57;;;;;;;;;;5035017;28;20741;-81
2023/03/03 02:56:09;;;;;;;84.30;39.13;;;;;;;;;;5036948;28;20434;-81
2023/03/03 02:58:35;;;;;;;78.03;36.35;;;;;;;;;;5037555;28;20538;-81
2023/03/03 03:01:03;;;;;;;75.63;35.40;;;;;;;;;;5031010;28;20960;-81
2023/03/03 03:03:30;;;;;;;79.88;38.28;;;;;;;;;;5038366;28;20950;-80
2023/03/03 03:05:56;;;;;;;84.63;38.67;;;;;;;;;;5023167;28;20429;-81
2023/03/03 03:08:22;;;;;;;80.55;36.95;;;;;;;;;;5039604;28;20421;-81
2023/03/03 03:10:50;;;;;;;69.43;35.07;;;;;;;;;;5039580;28;20434;-81
2023/03/03 03:13:16;;;;;;;68.03;34.38;;;;;;;;;;5043439;28;20430;-81
2023/03/03 03:15:45;;;;;;;66.32;32.88;;;;;;;;;;5039301;28;20435;-81
2023/03/03 03:18:14;;;;;;;54.58;27.35;;;;;;;;;;5039360;28;20417;-81
2023/03/03 03:20:41;;;;;;;55.17;28.05;;;;;;;;;;5040629;28;20432;-81
2023/03/03 03:23:07;;;;;;;50.10;26.63;;;;;;;;;;5041115;28;20426;-81
2023/03/03 03:25:34;;;;;;;46.45;25.92;;;;;;;;;;5040647;28;20460;-80
2023/03/03 03:28:01;;;;;;;39.95;21.63;;;;;;;;;;5040965;28;20449;-81
2023/03/03 03:30:27;;;;;;;36.58;20.52;;;;;;;;;;5040123;28;20460;-81
2023/03/03 03:32:54;;;;;;;38.97;21.83;;;;;;;;;;5042910;28;20421;-81
2023/03/03 03:35:21;;;;;;;36.25;19.63;;;;;;;;;;5042061;28;20441;-81
2023/03/03 03:37:48;;;;;;;36.58;20.48;;;;;;;;;;5038060;28;20464;-81
2023/03/03 03:40:16;;;;;;;37.13;20.00;;;;;;;;;;5040859;28;20797;-81
2023/03/03 03:42:42;;;;;;;42.20;21.63;;;;;;;;;;5039949;28;20437;-81
2023/03/03 03:45:09;;;;;;;40.90;20.30;;;;;;;;;;5042222;28;20425;-81
2023/03/03 03:47:35;;;;;;;38.00;20.17;;;;;;;;;;5040660;28;20508;-81
2023/03/03 03:50:02;;;;;;;43.75;21.65;;;;;;;;;;5043322;28;20440;-81
2023/03/03 03:52:31;;;;;;;39.75;20.30;;;;;;;;;;5036979;28;20426;-81
2023/03/03 03:54:57;;;;;;;40.97;19.98;;;;;;;;;;5042135;28;20896;-80
2023/03/03 03:57:24;;;;;;;37.67;20.45;;;;;;;;;;5041305;28;20888;-81
2023/03/03 03:59:50;;;;;;;38.43;20.70;;;;;;;;;;5042916;28;20438;-81
2023/03/03 04:02:17;;;;;;;41.72;21.00;;;;;;;;;;5040795;28;20413;-81
2023/03/03 04:04:43;;;;;;;45.73;21.37;;;;;;;;;;5040638;28;20537;-80
2023/03/03 04:07:10;;;;;;;46.83;20.60;;;;;;;;;;5042261;28;20436;-80
2023/03/03 04:09:38;;;;;;;45.15;21.05;;;;;;;;;;5038303;28;20818;-81
2023/03/03 04:12:06;;;;;;;46.88;21.38;;;;;;;;;;5042742;28;20744;-81
2023/03/03 04:14:32;;;;;;;82.50;25.58;;;;;;;;;;5039973;28;20436;-80
2023/03/03 04:16:59;;;;;;;64.18;22.27;;;;;;;;;;5039213;28;20434;-81
2023/03/03 04:19:27;;;;;;;46.95;22.15;;;;;;;;;;5041531;28;20423;-81
2023/03/03 04:21:53;;;;;;;61.17;23.67;;;;;;;;;;5039320;28;20437;-81
2023/03/03 04:24:20;;;;;;;47.77;22.67;;;;;;;;;;5024575;28;20588;-81
2023/03/03 04:26:47;;;;;;;48.38;21.73;;;;;;;;;;5040015;28;20439;-81
2023/03/03 04:29:14;;;;;;;55.08;22.38;;;;;;;;;;5038599;28;20415;-81
2023/03/03 04:31:40;;;;;;;45.33;21.77;;;;;;;;;;5039943;28;20433;-81
2023/03/03 04:34:07;;;;;;;46.55;21.90;;;;;;;;;;5039935;28;20450;-81
2023/03/03 04:36:33;;;;;;;44.83;21.48;;;;;;;;;;5037364;28;20426;-81
2023/03/03 04:39:00;;;;;;;45.83;22.17;;;;;;;;;;5039954;28;20424;-81
2023/03/03 04:41:26;;;;;;;46.58;22.20;;;;;;;;;;5042159;28;20413;-81
2023/03/03 04:43:54;;;;;;;51.08;23.17;;;;;;;;;;5039486;28;20423;-81
2023/03/03 04:46:20;;;;;;;45.22;22.42;;;;;;;;;;5041379;28;20411;-81
2023/03/03 04:48:47;;;;;;;52.53;22.85;;;;;;;;;;5040048;28;20415;-81
2023/03/03 04:51:15;;;;;;;48.28;22.70;;;;;;;;;;5041250;28;20427;-81
2023/03/03 04:53:41;;;;;;;43.33;21.95;;;;;;;;;;5040441;28;20505;-81
2023/03/03 04:56:08;;;;;;;69.15;24.65;;;;;;;;;;5039732;28;20441;-80
2023/03/03 04:58:34;;;;;;;44.88;23.23;;;;;;;;;;5039131;28;20427;-81
2023/03/03 05:01:02;;;;;;;48.55;23.00;;;;;;;;;;5039871;28;20494;-81
2023/03/03 05:03:28;;;;;;;49.97;23.45;;;;;;;;;;5036964;28;20431;-81
2023/03/03 05:05:56;;;;;;;51.72;24.27;;;;;;;;;;5040516;28;20415;-81
2023/03/03 05:08:23;;;;;;;67.20;25.33;;;;;;;;;;5038597;28;20428;-81
2023/03/03 05:10:51;;;;;;;54.03;23.80;;;;;;;;;;5040522;28;20422;-81
2023/03/03 05:13:17;;;;;;;61.00;26.08;;;;;;;;;;5038968;28;20429;-81
2023/03/03 05:15:43;;;;;;;56.22;25.98;;;;;;;;;;5037539;28;20941;-81
2023/03/03 05:18:11;;;;;;;56.33;26.08;;;;;;;;;;5038598;28;20420;-81
2023/03/03 05:20:39;;;;;;;51.13;24.05;;;;;;;;;;5037856;28;20427;-81
2023/03/03 05:23:06;;;;;;;55.22;26.83;;;;;;;;;;5037660;28;20440;-81
2023/03/03 05:25:32;;;;;;;48.08;24.08;;;;;;;;;;5039224;28;20425;-81
2023/03/03 05:27:58;;;;;;;58.80;25.30;;;;;;;;;;5041638;28;20417;-81
2023/03/03 05:30:25;;;;;;;59.70;25.70;;;;;;;;;;5039008;28;20422;-81
2023/03/03 05:32:51;;;;;;;48.95;24.40;;;;;;;;;;5021384;28;20427;-81
2023/03/03 05:35:19;;;;;;;53.35;24.92;;;;;;;;;;5035761;28;20430;-81
2023/03/03 05:37:48;;;;;;;56.78;25.17;;;;;;;;;;5036028;28;20959;-81
2023/03/03 05:40:15;;;;;;;54.42;25.02;;;;;;;;;;5036917;28;20423;-81
2023/03/03 05:42:42;;;;;;;50.28;24.90;;;;;;;;;;5036307;28;20423;-81
2023/03/03 05:45:09;;;;;;;54.30;25.73;;;;;;;;;;5035433;28;20440;-80
2023/03/03 05:47:35;;;;;;;47.53;23.52;;;;;;;;;;5035064;28;20435;-81
2023/03/03 05:50:03;;;;;;;50.78;25.30;;;;;;;;;;5037598;28;20425;-81
2023/03/03 05:52:30;;;;;;;45.20;22.65;;;;;;;;;;5035652;28;20943;-81
2023/03/03 05:54:57;;;;;;;47.65;23.17;;;;;;;;;;5036469;28;20431;-81
2023/03/03 05:57:23;;;;;;;51.28;24.13;;;;;;;;;;5037662;28;20414;-81
2023/03/03 05:59:50;;;;;;;48.58;22.45;;;;;;;;;;5034834;28;20433;-80
2023/03/03 06:02:16;;;;;;;47.50;21.53;;;;;;;;;;5035226;28;20511;-81
2023/03/03 06:04:43;;;;;;;42.67;21.00;;;;;;;;;;5039615;28;21080;-81
2023/03/03 06:07:11;;;;;;;43.25;21.42;;;;;;;;;;5030742;28;20425;-80
2023/03/03 06:09:39;;;;;;;45.92;22.20;;;;;;;;;;5037968;28;20425;-81
2023/03/03 06:12:05;;;;;;;43.20;20.85;;;;;;;;;;5040006;28;20431;-81
2023/03/03 06:14:32;;;;;;;47.42;22.20;;;;;;;;;;5036741;28;20453;-81
2023/03/03 06:16:58;;;;;;;39.83;20.30;;;;;;;;;;5033471;28;20440;-81
2023/03/03 06:19:25;;;;;;;44.63;22.52;;;;;;;;;;5033347;28;20960;-81
2023/03/03 06:21:51;;;;;;;45.05;22.20;;;;;;;;;;5037457;28;20440;-81
2023/03/03 06:24:18;;;;;;;44.65;22.35;;;;;;;;;;5036133;28;20431;-81
2023/03/03 06:26:45;;;;;;;47.15;23.05;;;;;;;;;;5037761;28;20436;-81
2023/03/03 06:29:12;;;;;;;44.97;22.70;;;;;;;;;;5031278;28;20438;-81
2023/03/03 06:31:39;;;;;;;44.95;23.17;;;;;;;;;;5036561;28;20428;-80
2023/03/03 06:34:06;;;;;;;45.30;21.20;;;;;;;;;;5039321;28;20430;-82
2023/03/03 06:36:32;;;;;;;45.15;21.95;;;;;;;;;;5035038;28;20439;-81
2023/03/03 06:38:59;;;;;;;44.42;21.77;;;;;;;;;;5030986;28;20425;-80
2023/03/03 06:41:26;;;;;;;41.28;21.92;;;;;;;;;;5036748;28;20545;-81
2023/03/03 06:43:55;;;;;;;42.30;22.40;;;;;;;;;;5036139;28;20429;-82
2023/03/03 06:46:22;;;;;;;44.53;22.70;;;;;;;;;;5035752;28;20433;-82
2023/03/03 06:48:49;;;;;;;40.38;22.10;;;;;;;;;;5035406;28;20991;-81
2023/03/03 06:51:25;;;;;;;40.05;22.70;;;;;;;;;;5038327;28;20450;-81
2023/03/03 06:53:53;;;;;;;45.70;23.17;;;;;;;;;;5038266;28;20776;-81
2023/03/03 06:56:20;;;;;;;40.72;20.88;;;;;;;;;;5033856;28;20439;-81
2023/03/03 06:58:46;;;;;;;35.17;19.85;;;;;;;;;;5037054;28;20427;-82
2023/03/03 07:01:16;;;;;;;36.25;19.92;;;;;;;;;;5033335;28;20433;-82
2023/03/03 07:03:42;;;;;;;33.00;20.13;;;;;;;;;;5036357;28;20453;-81
2023/03/03 07:06:14;;;;;;;36.97;21.30;;;;;;;;;;5037460;28;20436;-81
2023/03/03 07:08:41;;;;;;;31.97;19.30;;;;;;;;;;5033100;28;20428;-81
2023/03/03 07:11:09;;;;;;;30.67;19.10;;;;;;;;;;5033521;28;20429;-81
2023/03/03 07:13:40;;;;;;;35.80;20.60;;;;;;;;;;5034675;28;20555;-81
2023/03/03 07:16:10;;;;;;;36.20;20.33;;;;;;;;;;5034358;28;20438;-80
2023/03/03 07:18:40;;;;;;;38.63;21.98;;;;;;;;;;5038028;28;20425;-80
2023/03/03 07:21:12;;;;;;;33.00;20.08;;;;;;;;;;5033558;28;20489;-81
2023/03/03 07:23:41;;;;;;;31.57;18.50;;;;;;;;;;5034468;28;20423;-81
2023/03/03 07:26:09;;;;;;;25.40;16.70;;;;;;;;;;5032358;28;20445;-80
2023/03/03 07:28:35;;;;;;;28.23;16.90;;;;;;;;;;5026802;28;20426;-80
2023/03/03 07:31:02;;;;;;;26.92;16.63;;;;;;;;;;5026174;28;20434;-81
2023/03/03 07:33:29;;;;;;;27.88;16.80;;;;;;;;;;5035999;28;20427;-80
2023/03/03 07:35:58;;;;;;;27.80;17.00;;;;;;;;;;5038027;28;20428;-80
2023/03/03 07:38:30;;;;;;;25.65;16.58;;;;;;;;;;5034843;28;20432;-81
2023/03/03 07:40:57;;;;;;;29.35;16.75;;;;;;;;;;5037520;28;20959;-81
2023/03/03 07:43:30;;;;;;;29.48;17.02;;;;;;;;;;5033430;28;20429;-80
2023/03/03 07:46:00;;;;;;;29.02;17.92;;;;;;;;;;5036469;28;20432;-81
2023/03/03 07:48:30;;;;;;;27.73;17.50;;;;;;;;;;5039830;28;20857;-80
2023/03/03 07:51:02;;;;;;;29.43;16.70;;;;;;;;;;5042793;28;20804;-82
2023/03/03 07:53:33;;;;;;;26.48;17.17;;;;;;;;;;5042868;28;20431;-81
2023/03/03 07:56:01;;;;;;;27.08;16.38;;;;;;;;;;5041916;28;20824;-82
2023/03/03 07:58:35;;;;;;;26.45;16.20;;;;;;;;;;5042755;28;20431;-81
2023/03/03 08:01:16;;;;;;;21.55;14.25;;;;;;;;;;5044406;28;20426;-81
2023/03/03 08:03:45;;;;;;;19.85;13.88;;;;;;;;;;5042604;28;20421;-81
2023/03/03 08:06:28;;;;;;;21.60;13.98;;;;;;;;;;5046207;28;20437;-81
2023/03/03 08:08:55;;;;;;;21.45;14.15;;;;;;;;;;5041528;28;20924;-81
2023/03/03 08:11:21;;;;;;;21.85;14.02;;;;;;;;;;5039147;28;20432;-80
2023/03/03 08:13:48;;;;;;;23.38;14.07;;;;;;;;;;5042346;28;20425;-82
2023/03/03 08:16:28;;;;;;;20.73;13.93;;;;;;;;;;5043471;28;20436;-80
2023/03/03 08:18:58;;;;;;;18.63;13.20;;;;;;;;;;5039979;28;20428;-82
2023/03/03 08:21:26;;;;;;;22.23;14.38;;;;;;;;;;5045688;28;20429;-83
2023/03/03 08:23:52;;;;;;;24.63;14.82;;;;;;;;;;5045185;28;20427;-81
2023/03/03 08:26:19;;;;;;;24.92;17.27;;;;;;;;;;5039510;28;20451;-81
2023/03/03 08:28:47;;;;;;;24.00;15.48;;;;;;;;;;5042461;28;20427;-81
2023/03/03 08:31:16;;;;;;;26.95;16.55;;;;;;;;;;5041598;28;20434;-81
2023/03/03 08:33:43;;;;;;;28.08;16.85;;;;;;;;;;5041383;28;20948;-82
2023/03/03 08:36:10;;;;;;;30.83;17.75;;;;;;;;;;5042089;28;20963;-80
2023/03/03 08:38:38;;;;;;;28.17;17.60;;;;;;;;;;5038931;28;20430;-81
2023/03/03 08:41:05;;;;;;;31.05;19.17;;;;;;;;;;5038615;28;20433;-81
2023/03/03 08:43:31;;;;;;;27.38;17.73;;;;;;;;;;5041783;28;20434;-81
2023/03/03 08:45:59;;;;;;;29.58;17.40;;;;;;;;;;5041016;28;20427;-79
2023/03/03 08:48:28;;;;;;;25.88;16.30;;;;;;;;;;5041506;28;20430;-80
2023/03/03 08:50:54;;;;;;;26.30;16.10;;;;;;;;;;5042555;28;20481;-83
2023/03/03 08:53:21;;;;;;;25.92;14.90;;;;;;;;;;5041769;28;20417;-80
2023/03/03 08:55:49;;;;;;;22.00;14.25;;;;;;;;;;5043175;28;20516;-80
2023/03/03 08:58:16;;;;;;;21.90;14.50;;;;;;;;;;5044759;28;20985;-80
2023/03/03 09:00:42;;;;;;;18.65;13.60;;;;;;;;;;5042141;28;20438;-80
2023/03/03 09:03:08;;;;;;;26.65;14.30;;;;;;;;;;5040834;28;20485;-79
2023/03/03 09:05:35;;;;;;;19.35;13.10;;;;;;;;;;5041484;28;20442;-83
2023/03/03 09:08:02;;;;;;;20.65;13.10;;;;;;;;;;5039122;28;20496;-83
2023/03/03 09:10:30;;;;;;;20.00;12.68;;;;;;;;;;5044106;28;20428;-78
2023/03/03 09:13:00;;;;;;;16.90;11.95;;;;;;;;;;5037284;28;20421;-80
2023/03/03 09:15:27;;;;;;;17.95;12.82;;;;;;;;;;5026151;28;20450;-81
2023/03/03 09:17:54;;;;;;;18.45;11.88;;;;;;;;;;5032594;28;20430;-82
2023/03/03 09:20:27;;;;;;;17.63;11.93;;;;;;;;;;5031041;28;20975;-81
2023/03/03 09:22:54;;;;;;;18.00;12.65;;;;;;;;;;5031688;28;20435;-80
2023/03/03 09:25:22;;;;;;;17.30;12.20;;;;;;;;;;5029860;28;20423;-82
2023/03/03 09:27:48;;;;;;;17.20;12.00;;;;;;;;;;5034319;28;20431;-80
2023/03/03 09:30:30;;;;;;;17.70;12.32;;;;;;;;;;5031040;28;20800;-82
2023/03/03 09:32:57;;;;;;;17.80;12.10;;;;;;;;;;5032907;28;20497;-81
2023/03/03 09:35:31;;;;;;;17.50;12.60;;;;;;;;;;5031517;28;20776;-81
2023/03/03 09:37:57;;;;;;;16.98;12.10;;;;;;;;;;5032094;28;20441;-80
2023/03/03 09:40:33;;;;;;;15.93;12.05;;;;;;;;;;5031217;28;21715;-82
2023/03/03 09:43:02;;;;;;;17.95;12.70;;;;;;;;;;5031029;28;20431;-79
2023/03/03 09:45:47;;;;;;;17.40;12.73;;;;;;;;;;5032725;28;20514;-83
2023/03/03 09:48:42;;;;;;;19.23;13.68;;;;;;;;;;5033400;28;20435;-80
2023/03/03 09:51:17;;;;;;;17.10;12.98;;;;;;;;;;5031469;28;20431;-83
2023/03/03 09:53:52;;;;;;;17.85;13.00;;;;;;;;;;5025947;28;20420;-80
2023/03/03 09:56:21;;;;;;;19.83;13.40;;;;;;;;;;5032924;28;20435;-80
2023/03/03 09:58:55;;;;;;;19.38;12.93;;;;;;;;;;5034211;28;20434;-81
2023/03/03 10:01:36;;;;;;;20.05;13.18;;;;;;;;;;5025635;28;20936;-80
2023/03/03 10:04:14;;;;;;;18.80;12.20;;;;;;;;;;5029965;28;20516;-80
2023/03/03 10:06:45;;;;;;;19.08;12.10;;;;;;;;;;5031230;28;20928;-80
2023/03/03 10:09:32;;;;;;;18.42;12.13;;;;;;;;;;5031634;28;20439;-80
2023/03/03 10:12:02;;;;;;;18.83;11.75;;;;;;;;;;5026908;28;20419;-82
2023/03/03 10:14:37;;;;;;;15.80;10.18;;;;;;;;;;5032433;28;20457;-81
2023/03/03 10:17:15;;;;;;;15.02;11.20;;;;;;;;;;5031535;28;20954;-80
2023/03/03 10:19:48;;;;;;;16.27;10.60;;;;;;;;;;5032019;28;20525;-81
2023/03/03 10:22:18;;;;;;;16.42;10.93;;;;;;;;;;5031801;28;20543;-84
2023/03/03 10:24:47;;;;;;;13.80;8.82;;;;;;;;;;5033035;28;20437;-82
2023/03/03 10:27:24;;;;;;;15.27;9.77;;;;;;;;;;5032072;28;20798;-82
2023/03/03 10:29:58;;;;;;;14.18;10.40;;;;;;;;;;5030674;28;20423;-81
2023/03/03 10:32:30;;;;;;;15.77;10.02;;;;;;;;;;5033516;28;20433;-79
2023/03/03 10:35:14;;;;;;;13.20;9.10;;;;;;;;;;5029131;28;20461;-80
2023/03/03 10:37:45;;;;;;;13.77;9.35;;;;;;;;;;5027254;28;20828;-82
2023/03/03 10:40:17;;;;;;;12.50;8.82;;;;;;;;;;5031945;28;20429;-82
2023/03/03 10:42:53;;;;;;;13.20;8.43;;;;;;;;;;5031297;28;20430;-81
2023/03/03 10:45:33;;;;;;;12.65;8.02;;;;;;;;;;5032638;28;20411;-81
2023/03/03 10:48:05;;;;;;;10.13;6.40;;;;;;;;;;5033047;28;20435;-83
2023/03/03 10:50:36;;;;;;;11.10;7.20;;;;;;;;;;5032351;28;20446;-81
2023/03/03 10:53:11;;;;;;;7.53;5.40;;;;;;;;;;5030708;28;20438;-83
2023/03/03 10:55:42;;;;;;;9.45;5.82;;;;;;;;;;5030498;28;21011;-82
2023/03/03 10:58:23;;;;;;;8.65;5.68;;;;;;;;;;5034537;28;20435;-82
2023/03/03 11:00:52;;;;;;;9.80;5.53;;;;;;;;;;5023958;28;21061;-82
2023/03/03 11:03:49;;;;;;;11.57;6.00;;;;;;;;;;5033427;28;20434;-81
2023/03/03 11:06:21;;;;;;;7.82;5.38;;;;;;;;;;4981610;28;20431;-83
2023/03/03 11:08:51;;;;;;;9.27;5.60;;;;;;;;;;5032611;28;20442;-82
2023/03/03 11:11:20;;;;;;;7.75;5.00;;;;;;;;;;5031271;28;20430;-83
2023/03/03 11:13:50;;;;;;;7.88;5.10;;;;;;;;;;5034781;28;20423;-82
2023/03/03 11:16:30;;;;;;;6.07;4.63;;;;;;;;;;5031801;28;20924;-83
2023/03/03 11:19:02;;;;;;;9.88;4.85;;;;;;;;;;5031248;28;20438;-82
2023/03/03 11:21:33;;;;;;;7.07;3.75;;;;;;;;;;5034609;28;20529;-83
2023/03/03 11:24:10;;;;;;;6.72;3.40;;;;;;;;;;5038207;28;20473;-81
2023/03/03 11:26:51;;;;;;;7.63;4.18;;;;;;;;;;5036537;28;20426;-82
2023/03/03 11:29:32;;;;;;;9.27;3.95;;;;;;;;;;5031765;28;20436;-82
2023/03/03 11:32:03;;;;;;;7.03;5.10;;;;;;;;;;5033409;28;20438;-83
2023/03/03 11:34:42;;;;;;;7.53;5.25;;;;;;;;;;5038636;28;20638;-81
2023/03/03 11:37:12;;;;;;;8.10;5.10;;;;;;;;;;5036914;28;20506;-84
2023/03/03 11:39:39;;;;;;;10.23;6.15;;;;;;;;;;5035418;28;20431;-84
2023/03/03 11:42:11;;;;;;;10.90;6.70;;;;;;;;;;5037686;28;20920;-83
2023/03/03 11:44:40;;;;;;;8.27;6.15;;;;;;;;;;5041343;28;20438;-81
2023/03/03 11:47:12;;;;;;;7.97;4.95;;;;;;;;;;5037951;28;20425;-84
2023/03/03 11:49:40;;;;;;;6.85;5.10;;;;;;;;;;5042784;28;20429;-83
2023/03/03 11:52:17;;;;;;;9.18;5.85;;;;;;;;;;5039587;28;20423;-82
2023/03/03 11:54:47;;;;;;;5.70;4.65;;;;;;;;;;5042615;28;20429;-81
2023/03/03 11:57:19;;;;;;;7.17;4.37;;;;;;;;;;5035105;28;20435;-81
2023/03/03 11:59:48;;;;;;;7.45;4.40;;;;;;;;;;5035226;28;20434;-82
2023/03/03 12:02:24;;;;;;;6.85;4.10;;;;;;;;;;5033396;28;20423;-83
2023/03/03 12:04:53;;;;;;;7.75;3.75;;;;;;;;;;5035274;28;20422;-79
2023/03/03 12:07:26;;;;;;;5.63;3.35;;;;;;;;;;5034197;28;20437;-79
2023/03/03 12:09:57;;;;;;;6.47;3.60;;;;;;;;;;5033116;28;20434;-80
2023/03/03 12:12:25;;;;;;;4.55;2.70;;;;;;;;;;5034539;28;20426;-78
2023/03/03 12:14:59;;;;;;;5.00;3.38;;;;;;;;;;5032106;28;20434;-79
2023/03/03 12:17:33;;;;;;;4.75;2.40;;;;;;;;;;5035008;28;20430;-79
2023/03/03 12:20:03;;;;;;;4.97;2.60;;;;;;;;;;5034145;28;20434;-80
2023/03/03 12:22:33;;;;;;;4.75;2.50;;;;;;;;;;5035206;28;20442;-80
2023/03/03 12:25:07;;;;;;;5.23;2.43;;;;;;;;;;5033822;28;21009;-80
2023/03/03 12:27:39;;;;;;;3.00;2.20;;;;;;;;;;5032313;28;20430;-83
2023/03/03 12:30:12;;;;;;;4.90;2.20;;;;;;;;;;5030427;28;20793;-83
2023/03/03 12:32:48;;;;;;;3.38;2.00;;;;;;;;;;5033998;28;20437;-82
2023/03/03 12:35:20;;;;;;;4.65;1.70;;;;;;;;;;5036726;28;20439;-81
2023/03/03 12:37:50;;;;;;;3.53;2.00;;;;;;;;;;5036359;28;20427;-82
2023/03/03 12:40:19;;;;;;;3.70;1.80;;;;;;;;;;5033699;28;20533;-81
2023/03/03 12:42:57;;;;;;;4.15;2.30;;;;;;;;;;5035402;28;20466;-79
2023/03/03 12:45:29;;;;;;;5.70;3.00;;;;;;;;;;5034404;28;20978;-84
2023/03/03 12:48:00;;;;;;;4.78;2.40;;;;;;;;;;5036993;28;20857;-82
2023/03/03 12:50:31;;;;;;;7.03;3.20;;;;;;;;;;5036531;28;20419;-81
2023/03/03 12:53:03;;;;;;;5.20;2.80;;;;;;;;;;5036044;28;20835;-83
2023/03/03 12:55:37;;;;;;;6.60;2.90;;;;;;;;;;5031367;28;20419;-82
2023/03/03 12:58:07;;;;;;;4.15;2.70;;;;;;;;;;5024039;28;20802;-80
2023/03/03 13:00:39;;;;;;;7.25;2.70;;;;;;;;;;5035839;28;20434;-80
2023/03/03 13:03:10;;;;;;;4.30;2.60;;;;;;;;;;5033978;28;20470;-82
2023/03/03 13:05:44;;;;;;;7.32;3.70;;;;;;;;;;5031834;28;20950;-80
2023/03/03 13:08:28;;;;;;;7.65;3.70;;;;;;;;;;5033508;28;20929;-79
2023/03/03 13:10:56;;;;;;;7.55;3.20;;;;;;;;;;5032548;28;20427;-81
2023/03/03 13:13:25;;;;;;;4.43;2.30;;;;;;;;;;5032897;28;20442;-82
2023/03/03 13:15:57;;;;;;;7.90;3.50;;;;;;;;;;5032537;28;20430;-81
2023/03/03 13:18:32;;;;;;;6.20;3.00;;;;;;;;;;5033372;28;20816;-81
2023/03/03 13:21:04;;;;;;;5.90;2.60;;;;;;;;;;5032741;28;20423;-80
2023/03/03 13:23:41;;;;;;;5.38;3.00;;;;;;;;;;5032066;28;20439;-80
2023/03/03 13:26:10;;;;;;;5.95;2.80;;;;;;;;;;5033128;28;20431;-82
2023/03/03 13:28:39;;;;;;;5.20;2.65;;;;;;;;;;5033266;28;20431;-81
2023/03/03 13:31:09;;;;;;;6.60;2.40;;;;;;;;;;5024101;28;20431;-81
2023/03/03 13:33:36;;;;;;;4.40;1.70;;;;;;;;;;5033681;28;20478;-80
2023/03/03 13:36:03;;;;;;;4.05;2.03;;;;;;;;;;5033038;28;20447;-82
2023/03/03 13:38:33;;;;;;;3.85;1.92;;;;;;;;;;5031792;28;20431;-81
2023/03/03 13:41:10;;;;;;;6.20;2.00;;;;;;;;;;5031435;28;20432;-81
2023/03/03 13:43:43;;;;;;;4.87;2.30;;;;;;;;;;5035715;28;20501;-81
2023/03/03 13:46:13;;;;;;;6.07;2.40;;;;;;;;;;5031409;28;20427;-80
2023/03/03 13:48:48;;;;;;;5.43;2.60;;;;;;;;;;5033101;28;20418;-82
2023/03/03 13:51:19;;;;;;;4.50;2.80;;;;;;;;;;5032654;28;20419;-83
2023/03/03 13:53:50;;;;;;;5.40;3.50;;;;;;;;;;5030772;28;20442;-82
2023/03/03 13:56:27;;;;;;;5.68;3.20;;;;;;;;;;5030542;28;20434;-83
2023/03/03 13:58:55;;;;;;;3.40;3.10;;;;;;;;;;5029622;28;20429;-83
2023/03/03 14:01:25;;;;;;;5.80;2.90;;;;;;;;;;5026965;28;20513;-83
2023/03/03 14:03:59;;;;;;;4.82;3.30;;;;;;;;;;5028962;28;21081;-83
2023/03/03 14:06:28;;;;;;;6.50;3.40;;;;;;;;;;5029211;28;20423;-83
2023/03/03 14:09:08;;;;;;;4.72;2.75;;;;;;;;;;5024272;28;20430;-83
2023/03/03 14:11:40;;;;;;;3.47;2.42;;;;;;;;;;5022433;28;20430;-84
2023/03/03 14:14:10;;;;;;;3.47;3.00;;;;;;;;;;5031988;28;20431;-82
2023/03/03 14:16:47;;;;;;;6.60;3.30;;;;;;;;;;5032450;28;20411;-82
2023/03/03 14:19:17;;;;;;;7.32;3.15;;;;;;;;;;5031980;28;20962;-82
2023/03/03 14:21:47;;;;;;;4.00;2.67;;;;;;;;;;5030791;28;20415;-84
2023/03/03 14:24:16;;;;;;;4.07;2.70;;;;;;;;;;5029374;28;20442;-83
2023/03/03 14:26:48;;;;;;;4.50;2.60;;;;;;;;;;5022482;28;20454;-82
2023/03/03 14:29:22;;;;;;;6.43;2.77;;;;;;;;;;5031568;28;20439;-83
2023/03/03 14:31:49;;;;;;;4.90;3.00;;;;;;;;;;5030003;28;20419;-82
2023/03/03 14:34:27;;;;;;;5.13;3.33;;;;;;;;;;5030859;28;20422;-82
2023/03/03 14:36:58;;;;;;;5.77;3.00;;;;;;;;;;5029693;28;20515;-82